Flight Track Log - Related Links

Times and Time Zones

All times are in EDT time to prevent confusion due to time zone crossing. See the LXJ549 flight status page for this flight to view local times or setup timezone preferences in your user account.

Time Position Orientation Groundspeed Altitude Reporting Facility
EDT Latitude Longitude Course Direction KTS MPH feet Rate Location/Type
Sun 03:20:57 PM 42.4667 -71.3000 294° West 152 175 1,400  Level KA90
Sun 03:21:34 PM 42.4833 -71.3500 294° West 195 224 2,900 1,918 Climbing KA90
Sun 03:22:34 PM 42.5333 -71.3167 26° Northeast 233 268 4,500 2,850 Climbing KA90
Sun 03:23:34 PM 42.6000 -71.2500 36° Northeast 284 327 8,600 2,250 Climbing KA90
Sun 03:24:34 PM 42.6667 -71.2000 29° Northeast 290 334 9,000 200 Climbing KA90
Sun 03:25:34 PM 42.7333 -71.1333 36° Northeast 286 329 9,000  Level KA90
Sun 03:26:34 PM 42.8000 -71.0833 29° Northeast 286 329 9,000  Level KA90
Sun 03:27:34 PM 42.8667 -71.0167 36° Northeast 284 327 9,000  Level KA90
Sun 03:28:34 PM 42.9333 -70.9500 36° Northeast 291 335 9,000  Level KA90
Sun 03:29:34 PM 42.9833 -70.8667 51° Northeast 296 341 9,000  Level KA90
Sun 03:30:34 PM 43.0667 -70.8167 24° Northeast 293 337 9,000  Level KA90
Sun 03:32:00 PM 43.1572 -70.7745 23° Northeast  Level FlightAware Approximate
Sun 03:39:00 PM 43.5369 -70.4297 36° Northeast  Level FlightAware Approximate
Sun 03:40:00 PM 43.5890 -70.3740 50° Northeast  Level FlightAware Approximate
Sun 03:41:00 PM 43.6311 -70.3037 50° Northeast  Level FlightAware Approximate
Sun 03:42:00 PM 43.6333 -70.3000 50° Northeast  Level FlightAware Approximate
Sun 03:43:00 PM 43.6456 -70.3086 50° Northeast  Level Estimated
Sun 03:44:00 PM 43.6456 -70.3086 50° Northeast  Level Estimated
Sun 03:45:00 PM 43.6456 -70.3086 50° Northeast  Level Estimated
Sun 03:46:00 PM 43.6456 -70.3086 50° Northeast  Level Estimated
Sun 03:47:00 PM 43.6456 -70.3086 50° Northeast  Level Estimated
Sun 03:48:00 PM 43.6456 -70.3086 50° Northeast  Level Estimated
Sun 03:49:00 PM 43.6456 -70.3086 50° Northeast  Level Estimated

Login

Don't have an account? Register now (free) for customized features, flight alerts, and more!